createdAt,value
2022-09-15T00:01:19.559Z,87.73
2022-09-15T00:03:51.242Z,85.74
2022-09-15T00:06:18.378Z,85.94
2022-09-15T00:08:47.759Z,87.13
2022-09-15T00:11:27.079Z,90.84
2022-09-15T00:13:55.258Z,93.53
2022-09-15T00:16:25.629Z,96.12
2022-09-15T00:18:52.698Z,94.99
2022-09-15T00:21:23.028Z,95.50
2022-09-15T00:23:50.411Z,93.98
2022-09-15T00:26:26.812Z,93.82
2022-09-15T00:28:54.767Z,92.21
2022-09-15T00:31:23.911Z,91.15
2022-09-15T00:33:53.336Z,88.84
2022-09-15T00:36:21.962Z,88.64
2022-09-15T00:38:49.663Z,89.15
2022-09-15T00:41:20.685Z,87.61
2022-09-15T00:43:48.577Z,85.56
2022-09-15T00:46:22.484Z,87.02
2022-09-15T00:49:19.388Z,87.29
2022-09-15T00:52:01.429Z,85.94
2022-09-15T00:54:34.513Z,85.27
2022-09-15T00:57:06.891Z,85.57
2022-09-15T00:59:39.088Z,85.93
2022-09-15T01:02:18.161Z,85.23
2022-09-15T01:04:45.512Z,83.57
2022-09-15T01:07:18.685Z,83.59
2022-09-15T01:10:00.061Z,84.78
2022-09-15T01:12:28.325Z,83.78
2022-09-15T01:15:00.011Z,84.77
2022-09-15T01:17:53.742Z,84.65
2022-09-15T01:20:54.700Z,84.22
2022-09-15T01:23:42.973Z,87.18
2022-09-15T01:26:49.295Z,87.53
2022-09-15T01:29:50.928Z,89.11
2022-09-15T01:32:49.789Z,89.50
2022-09-15T01:35:59.032Z,90.32
2022-09-15T01:39:02.043Z,93.22
2022-09-15T01:41:39.567Z,92.43
2022-09-15T01:44:15.645Z,91.78
2022-09-15T01:46:49.040Z,90.36
2022-09-15T01:49:25.426Z,89.42
2022-09-15T01:51:54.131Z,87.93
2022-09-15T01:54:27.974Z,88.06
2022-09-15T01:56:54.636Z,86.45
2022-09-15T01:59:21.402Z,85.82
2022-09-15T02:01:57.947Z,87.06
2022-09-15T02:04:42.933Z,86.23
2022-09-15T02:07:46.225Z,84.92
2022-09-15T02:10:27.921Z,83.09
2022-09-15T02:13:10.299Z,82.41
2022-09-15T02:15:42.004Z,81.54
2022-09-15T02:18:13.749Z,82.35
2022-09-15T02:20:49.683Z,81.06
2022-09-15T02:23:36.772Z,81.13
2022-09-15T02:26:15.717Z,79.53
2022-09-15T02:28:47.974Z,81.46
2022-09-15T02:31:18.369Z,81.26
2022-09-15T02:33:54.104Z,79.41
2022-09-15T02:36:22.191Z,79.01
2022-09-15T02:39:03.346Z,79.30
2022-09-15T02:41:38.168Z,78.17
2022-09-15T02:44:09.132Z,78.78
2022-09-15T02:46:40.135Z,78.46
2022-09-15T02:49:07.425Z,78.00
2022-09-15T02:51:34.322Z,78.31
2022-09-15T02:54:04.347Z,78.28
2022-09-15T02:56:46.663Z,78.00
2022-09-15T02:59:28.196Z,79.87
2022-09-15T03:03:04.505Z,79.96
2022-09-15T03:05:06.331Z,80.33
2022-09-15T03:07:42.453Z,80.66
2022-09-15T03:10:11.140Z,80.24
2022-09-15T03:12:50.706Z,80.81
2022-09-15T03:15:42.691Z,80.08
2022-09-15T03:18:20.386Z,79.68
2022-09-15T03:20:56.753Z,79.46
2022-09-15T03:23:29.232Z,79.71
2022-09-15T03:25:56.350Z,80.32
2022-09-15T03:28:23.174Z,80.46
2022-09-15T03:30:50.129Z,81.53
2022-09-15T03:33:17.122Z,81.58
2022-09-15T03:35:50.362Z,82.34
2022-09-15T03:38:18.721Z,82.23
2022-09-15T03:41:08.942Z,81.54
2022-09-15T03:43:42.954Z,80.48
2022-09-15T03:46:26.135Z,81.38
2022-09-15T03:49:06.660Z,80.83
2022-09-15T03:51:41.723Z,81.26
2022-09-15T03:54:16.185Z,80.86
2022-09-15T03:56:48.290Z,80.73
2022-09-15T03:59:26.399Z,80.69
2022-09-15T04:02:14.926Z,81.11
2022-09-15T04:05:01.865Z,81.37
2022-09-15T04:07:31.852Z,81.77
2022-09-15T04:09:59.918Z,82.15
2022-09-15T04:12:27.313Z,82.24
2022-09-15T04:14:55.554Z,82.36
2022-09-15T04:17:28.543Z,82.27
2022-09-15T04:20:15.991Z,82.51
2022-09-15T04:22:46.080Z,82.36
2022-09-15T04:25:13.182Z,82.06
2022-09-15T04:27:50.253Z,83.09
2022-09-15T04:30:17.553Z,82.31
2022-09-15T04:32:46.915Z,83.10
2022-09-15T04:35:13.904Z,83.32
2022-09-15T04:37:41.223Z,83.50
2022-09-15T04:40:11.285Z,83.46
2022-09-15T04:42:38.699Z,83.76
2022-09-15T04:45:11.561Z,83.26
2022-09-15T04:47:43.098Z,82.50
2022-09-15T04:50:10.117Z,81.74
2022-09-15T04:52:36.724Z,82.11
2022-09-15T04:55:03.587Z,82.25
2022-09-15T04:57:42.699Z,81.81
2022-09-15T05:00:42.290Z,81.58
2022-09-15T05:03:15.110Z,81.31
2022-09-15T05:05:42.063Z,81.85
2022-09-15T05:08:08.668Z,81.52
2022-09-15T05:10:35.365Z,80.83
2022-09-15T05:13:02.295Z,80.11
2022-09-15T05:15:29.024Z,80.27
2022-09-15T05:17:55.727Z,81.13
2022-09-15T05:20:22.559Z,80.82
2022-09-15T05:22:50.828Z,80.87
2022-09-15T05:25:17.492Z,80.91
2022-09-15T05:27:44.174Z,81.72
2022-09-15T05:30:36.028Z,82.21
2022-09-15T05:32:58.230Z,81.77
2022-09-15T05:35:25.021Z,82.63
2022-09-15T05:37:51.803Z,83.66
2022-09-15T05:40:18.407Z,83.38
2022-09-15T05:42:45.110Z,83.40
2022-09-15T05:45:11.773Z,83.59
2022-09-15T05:47:38.549Z,82.97
2022-09-15T05:50:05.447Z,83.21
2022-09-15T05:52:32.252Z,83.99
2022-09-15T05:55:00.203Z,86.73
2022-09-15T05:57:27.106Z,85.43
2022-09-15T05:59:53.748Z,84.61
2022-09-15T06:02:20.412Z,84.79
2022-09-15T06:04:47.013Z,86.78
2022-09-15T06:07:13.659Z,86.23
2022-09-15T06:09:40.392Z,88.34
2022-09-15T06:12:07.309Z,87.90
2022-09-15T06:14:34.076Z,88.11
2022-09-15T06:17:00.707Z,88.20
2022-09-15T06:19:27.311Z,88.37
2022-09-15T06:21:54.041Z,86.88
2022-09-15T06:24:20.713Z,87.22
2022-09-15T06:26:47.309Z,86.19
2022-09-15T06:29:13.773Z,85.12
2022-09-15T06:31:40.287Z,87.28
2022-09-15T06:34:07.033Z,87.23
2022-09-15T06:36:33.524Z,86.06
2022-09-15T06:38:59.974Z,84.71
2022-09-15T06:41:27.201Z,83.76
2022-09-15T06:43:53.729Z,85.19
2022-09-15T06:46:24.592Z,83.55
2022-09-15T06:48:51.212Z,82.95
2022-09-15T06:51:21.307Z,84.81
2022-09-15T06:53:48.729Z,84.94
2022-09-15T06:56:18.258Z,85.46
2022-09-15T06:58:45.856Z,85.33
2022-09-15T07:01:18.807Z,86.33
2022-09-15T07:03:45.402Z,85.82
2022-09-15T07:06:12.231Z,83.80
2022-09-15T07:08:39.887Z,84.49
2022-09-15T07:11:06.903Z,83.49
2022-09-15T07:13:33.353Z,82.43
2022-09-15T07:16:02.624Z,81.72
2022-09-15T07:18:29.586Z,81.93
2022-09-15T07:21:17.417Z,80.35
2022-09-15T07:23:44.380Z,80.79
2022-09-15T07:26:18.018Z,84.29
2022-09-15T07:28:50.128Z,84.45
2022-09-15T07:31:19.535Z,83.87
2022-09-15T07:33:46.185Z,82.98
2022-09-15T07:36:12.721Z,81.44
2022-09-15T07:38:42.333Z,82.78
2022-09-15T07:41:30.031Z,82.01
2022-09-15T07:44:01.694Z,84.59
2022-09-15T07:46:31.793Z,82.57
2022-09-15T07:48:58.742Z,81.46
2022-09-15T07:51:25.845Z,80.45
2022-09-15T07:53:53.459Z,82.71
2022-09-15T07:56:21.194Z,81.66
2022-09-15T07:58:48.667Z,79.92
2022-09-15T08:01:17.005Z,80.11
2022-09-15T08:03:46.442Z,79.57
2022-09-15T08:06:13.658Z,78.86
2022-09-15T08:08:41.963Z,79.09
2022-09-15T08:11:15.164Z,78.53
2022-09-15T08:13:44.889Z,77.10
2022-09-15T08:16:17.421Z,75.58
2022-09-15T08:18:44.870Z,74.10
2022-09-15T08:21:15.732Z,74.10
2022-09-15T08:23:43.464Z,74.69
2022-09-15T08:26:14.345Z,72.67
2022-09-15T08:28:42.286Z,72.32
2022-09-15T08:31:11.426Z,70.99
2022-09-15T08:33:41.983Z,71.12
2022-09-15T08:36:12.316Z,68.99
2022-09-15T08:38:40.536Z,69.28
2022-09-15T08:41:30.133Z,68.41
2022-09-15T08:44:30.501Z,67.40
2022-09-15T08:47:08.499Z,67.82
2022-09-15T08:49:51.483Z,69.20
2022-09-15T08:52:26.087Z,69.96
2022-09-15T08:54:57.394Z,68.36
2022-09-15T08:57:25.701Z,68.72
2022-09-15T08:59:53.547Z,67.73
2022-09-15T09:02:37.733Z,67.12
2022-09-15T09:05:04.325Z,67.47
2022-09-15T09:07:59.529Z,67.20
2022-09-15T09:11:04.680Z,67.97
2022-09-15T09:13:41.031Z,67.91
2022-09-15T09:16:26.093Z,68.21
2022-09-15T09:18:55.159Z,68.22
2022-09-15T09:21:35.018Z,68.19
2022-09-15T09:24:13.256Z,67.89
2022-09-15T09:26:39.712Z,68.07
2022-09-15T09:29:24.710Z,68.11
2022-09-15T09:31:55.592Z,68.45
2022-09-15T09:35:03.042Z,68.17
2022-09-15T09:37:30.137Z,67.82
2022-09-15T09:39:56.660Z,68.06
2022-09-15T09:42:31.577Z,68.96
2022-09-15T09:44:58.073Z,70.27
2022-09-15T09:47:29.023Z,71.31
2022-09-15T09:49:55.887Z,71.46
2022-09-15T09:52:34.225Z,70.40
2022-09-15T09:55:16.458Z,69.18
2022-09-15T09:57:42.962Z,69.19
2022-09-15T10:00:38.384Z,68.87
2022-09-15T10:03:14.260Z,67.52
2022-09-15T10:05:42.192Z,67.36
2022-09-15T10:08:16.986Z,67.71
2022-09-15T10:10:52.610Z,66.70
2022-09-15T10:13:19.542Z,66.57
2022-09-15T10:15:53.395Z,64.89
2022-09-15T10:18:38.580Z,65.37
2022-09-15T10:21:09.592Z,64.76
2022-09-15T10:23:36.528Z,65.46
2022-09-15T10:26:15.243Z,65.18
2022-09-15T10:28:42.836Z,65.47
2022-09-15T10:31:12.118Z,66.72
2022-09-15T10:33:41.204Z,66.08
2022-09-15T10:36:13.031Z,66.69
2022-09-15T10:38:44.900Z,65.25
2022-09-15T10:41:14.020Z,64.59
2022-09-15T10:43:52.588Z,64.65
2022-09-15T10:46:27.535Z,64.07
2022-09-15T10:49:30.908Z,64.67
2022-09-15T10:52:32.858Z,64.88
2022-09-15T10:55:48.535Z,65.02
2022-09-15T10:58:40.941Z,64.02
2022-09-15T11:01:28.086Z,65.67
2022-09-15T11:04:09.727Z,65.43
2022-09-15T11:06:42.141Z,65.49
2022-09-15T11:09:29.664Z,69.86
2022-09-15T11:12:05.163Z,70.19
2022-09-15T11:14:57.430Z,68.88
2022-09-15T11:17:54.277Z,68.20
2022-09-15T11:20:30.170Z,69.05
2022-09-15T11:23:19.428Z,68.93
2022-09-15T11:25:57.347Z,68.17
2022-09-15T11:28:41.643Z,66.92
2022-09-15T11:31:16.869Z,66.94
2022-09-15T11:33:55.416Z,67.70
2022-09-15T11:36:47.096Z,66.96
2022-09-15T11:39:26.317Z,66.06
2022-09-15T11:42:39.984Z,65.91
2022-09-15T11:45:17.821Z,65.73
2022-09-15T11:47:52.083Z,66.08
2022-09-15T11:50:32.289Z,66.68
2022-09-15T11:53:28.145Z,65.30
2022-09-15T11:56:22.847Z,66.14
2022-09-15T11:59:04.941Z,66.94
2022-09-15T12:01:46.366Z,68.52
2022-09-15T12:04:25.440Z,72.99
2022-09-15T12:07:20.841Z,72.49
2022-09-15T12:09:47.473Z,72.33
2022-09-15T12:12:20.065Z,75.11
2022-09-15T12:14:49.683Z,71.83
2022-09-15T12:17:33.998Z,74.12
2022-09-15T12:20:17.318Z,74.58
2022-09-15T12:23:09.802Z,73.49
2022-09-15T12:26:12.727Z,72.72
2022-09-15T12:28:51.466Z,73.73
2022-09-15T12:31:32.055Z,74.50
2022-09-15T12:34:24.718Z,78.80
2022-09-15T12:37:06.815Z,80.54
2022-09-15T12:39:47.576Z,81.76
2022-09-15T12:42:19.666Z,82.52
2022-09-15T12:44:52.083Z,81.45
2022-09-15T12:47:27.006Z,82.56
2022-09-15T12:49:59.848Z,82.39
2022-09-15T12:52:27.832Z,84.59
2022-09-15T12:55:01.338Z,84.67
2022-09-15T12:57:33.336Z,87.50
2022-09-15T13:00:26.063Z,87.58
2022-09-15T13:02:53.354Z,87.84
2022-09-15T13:05:41.551Z,89.91
2022-09-15T13:08:29.914Z,89.80
2022-09-15T13:11:02.946Z,87.91
2022-09-15T13:13:40.980Z,90.18
2022-09-15T13:16:19.306Z,87.67
2022-09-15T13:18:47.384Z,88.79
2022-09-15T13:21:20.908Z,89.31
2022-09-15T13:23:54.155Z,84.62
2022-09-15T13:26:27.179Z,82.63
2022-09-15T13:28:56.399Z,80.45
2022-09-15T13:31:32.151Z,78.73
2022-09-15T13:40:34.271Z,70.45
2022-09-15T13:43:25.527Z,68.20
2022-09-15T13:46:46.859Z,65.11
2022-09-15T13:49:46.194Z,64.31
2022-09-15T13:52:29.771Z,64.91
2022-09-15T13:55:20.294Z,64.35
2022-09-15T14:00:51.863Z,65.68
2022-09-15T14:03:23.331Z,65.07
2022-09-15T14:05:49.942Z,66.17
2022-09-15T14:08:26.686Z,65.47
2022-09-15T14:11:00.224Z,65.93
2022-09-15T14:13:29.786Z,65.55
2022-09-15T14:16:01.596Z,62.88
2022-09-15T14:18:29.608Z,61.97
2022-09-15T14:21:04.412Z,60.75
2022-09-15T14:23:32.031Z,58.32
2022-09-15T14:26:02.527Z,59.26
2022-09-15T14:28:32.766Z,56.21
2022-09-15T14:31:01.510Z,55.31
2022-09-15T14:33:38.108Z,54.84
2022-09-15T14:36:22.697Z,54.41
2022-09-15T14:39:06.006Z,54.36
2022-09-15T14:41:32.719Z,53.99
2022-09-15T14:43:59.376Z,55.47
2022-09-15T14:46:36.398Z,56.17
2022-09-15T14:49:10.790Z,57.52
2022-09-15T14:51:38.957Z,59.34
2022-09-15T14:54:21.356Z,60.39
2022-09-15T14:56:50.944Z,61.66
2022-09-15T14:59:27.107Z,62.81
2022-09-15T15:02:15.808Z,63.45
2022-09-15T15:04:52.148Z,64.54
2022-09-15T15:07:32.655Z,65.39
2022-09-15T15:10:04.120Z,66.74
2022-09-15T15:12:35.572Z,66.79
2022-09-15T15:15:02.591Z,67.38
2022-09-15T15:17:35.100Z,68.44
2022-09-15T15:20:07.539Z,67.72
2022-09-15T15:22:34.554Z,68.70
2022-09-15T15:25:01.181Z,69.03
2022-09-15T15:27:33.726Z,69.26
2022-09-15T15:30:29.512Z,72.29
2022-09-15T15:33:19.770Z,73.23
2022-09-15T15:35:47.782Z,74.23
2022-09-15T15:38:17.756Z,75.34
2022-09-15T15:40:45.792Z,76.57
2022-09-15T15:43:12.213Z,75.23
2022-09-15T15:45:52.690Z,77.12
2022-09-15T15:48:19.267Z,76.77
2022-09-15T15:50:45.773Z,75.83
2022-09-15T15:53:12.257Z,76.55
2022-09-15T15:55:42.615Z,75.83
2022-09-15T15:58:11.479Z,76.00
2022-09-15T16:00:51.142Z,76.44
2022-09-15T16:03:19.753Z,76.68
2022-09-15T16:05:50.456Z,76.30
2022-09-15T16:08:26.733Z,76.44
2022-09-15T16:10:55.119Z,78.64
2022-09-15T16:13:22.997Z,79.63
2022-09-15T16:15:49.973Z,80.45
2022-09-15T16:18:16.606Z,80.05
2022-09-15T16:20:43.292Z,80.17
2022-09-15T16:23:14.977Z,80.68
2022-09-15T16:25:55.393Z,81.04
2022-09-15T16:28:21.938Z,80.60
2022-09-15T16:30:48.395Z,78.24
2022-09-15T16:33:16.848Z,78.43
2022-09-15T16:35:56.741Z,79.01
2022-09-15T16:38:23.835Z,79.32
2022-09-15T16:40:50.799Z,80.86
2022-09-15T16:43:20.153Z,81.56
2022-09-15T16:45:47.888Z,82.10
2022-09-15T16:48:14.800Z,82.64
2022-09-15T16:50:50.501Z,83.51
2022-09-15T16:53:28.432Z,84.35
2022-09-15T16:55:55.005Z,85.96
2022-09-15T16:58:22.541Z,86.32
2022-09-15T17:00:51.229Z,88.89
2022-09-15T17:03:23.477Z,86.51
2022-09-15T17:05:52.213Z,87.67
2022-09-15T17:08:22.530Z,86.92
2022-09-15T17:10:50.419Z,86.47
2022-09-15T17:13:22.304Z,88.07
2022-09-15T17:15:50.828Z,92.53
2022-09-15T17:18:17.488Z,90.99
2022-09-15T17:20:45.866Z,90.66
2022-09-15T17:23:23.025Z,90.44
2022-09-15T17:25:52.175Z,88.64
2022-09-15T17:28:21.342Z,88.56
2022-09-15T17:30:50.352Z,90.14
2022-09-15T17:33:19.691Z,91.81
2022-09-15T17:35:47.746Z,92.50
2022-09-15T17:38:15.481Z,93.36
2022-09-15T17:40:42.255Z,95.00
2022-09-15T17:43:19.101Z,95.54
2022-09-15T17:45:47.778Z,94.75
2022-09-15T17:48:15.400Z,93.34
2022-09-15T17:50:42.617Z,92.73
2022-09-15T17:53:16.679Z,93.34
2022-09-15T17:55:43.647Z,97.13
2022-09-15T17:58:10.307Z,98.11
2022-09-15T18:00:39.794Z,96.09
2022-09-15T18:03:21.519Z,95.59
2022-09-15T18:05:48.831Z,95.87
2022-09-15T18:08:16.019Z,95.07
2022-09-15T18:10:42.571Z,95.13
2022-09-15T18:13:21.122Z,95.44
2022-09-15T18:15:48.790Z,94.85
2022-09-15T18:18:20.595Z,95.69
2022-09-15T18:20:48.504Z,93.89
2022-09-15T18:23:20.630Z,93.50
2022-09-15T18:25:49.100Z,90.58
2022-09-15T18:28:17.199Z,88.94
2022-09-15T18:30:46.787Z,88.90
2022-09-15T18:33:19.835Z,88.25
2022-09-15T18:35:50.713Z,87.72
2022-09-15T18:38:17.880Z,87.04
2022-09-15T18:40:50.761Z,87.52
2022-09-15T18:43:17.628Z,86.29
2022-09-15T18:45:44.293Z,86.82
2022-09-15T18:48:12.915Z,85.31
2022-09-15T18:50:41.639Z,88.78
2022-09-15T18:53:08.365Z,89.47
2022-09-15T18:55:35.001Z,93.07
2022-09-15T18:58:02.077Z,93.23
2022-09-15T19:00:28.945Z,91.81
2022-09-15T19:02:56.922Z,90.94
2022-09-15T19:05:23.980Z,91.09
2022-09-15T19:07:50.571Z,91.46
2022-09-15T19:10:17.114Z,92.16
2022-09-15T19:12:44.541Z,91.17
2022-09-15T19:15:13.041Z,88.61
2022-09-15T19:17:41.645Z,90.23
2022-09-15T19:20:10.626Z,91.69
2022-09-15T19:22:37.896Z,94.21
2022-09-15T19:25:06.703Z,93.57
2022-09-15T19:27:33.804Z,91.14
2022-09-15T19:30:00.787Z,90.86
2022-09-15T19:32:27.765Z,93.18
2022-09-15T19:34:54.555Z,90.93
2022-09-15T19:37:22.205Z,88.94
2022-09-15T19:39:50.505Z,86.65
2022-09-15T19:42:17.651Z,85.72
2022-09-15T19:44:44.237Z,85.28
2022-09-15T19:47:13.177Z,85.02
2022-09-15T19:49:39.714Z,85.20
2022-09-15T19:52:06.571Z,84.63
2022-09-15T19:54:33.930Z,85.31
2022-09-15T19:57:00.641Z,84.22
2022-09-15T19:59:31.041Z,84.72
2022-09-15T20:01:59.370Z,84.59
2022-09-15T20:04:27.317Z,84.18
2022-09-15T20:06:54.056Z,86.43
2022-09-15T20:09:20.642Z,85.21
2022-09-15T20:11:47.539Z,85.30
2022-09-15T20:14:14.761Z,87.87
2022-09-15T20:16:42.138Z,87.64
2022-09-15T20:19:09.226Z,87.38
2022-09-15T20:21:49.702Z,87.75
2022-09-15T20:24:19.657Z,86.69
2022-09-15T20:26:46.673Z,85.70
2022-09-15T20:29:13.628Z,86.27
2022-09-15T20:31:41.072Z,84.83
2022-09-15T20:34:08.403Z,83.34
2022-09-15T20:36:38.285Z,83.44
2022-09-15T20:39:08.811Z,84.99
2022-09-15T20:41:36.455Z,86.40
2022-09-15T20:44:03.338Z,86.59
2022-09-15T20:46:30.187Z,88.52
2022-09-15T20:48:57.031Z,87.45
2022-09-15T20:51:27.123Z,87.35
2022-09-15T20:53:56.428Z,86.45
2022-09-15T20:56:26.060Z,86.55
2022-09-15T20:58:54.454Z,85.80
2022-09-15T21:01:24.572Z,85.87
2022-09-15T21:03:51.520Z,86.38
2022-09-15T21:06:22.062Z,85.33
2022-09-15T21:08:50.251Z,86.17
2022-09-15T21:11:19.023Z,85.64
2022-09-15T21:13:46.310Z,85.21
2022-09-15T21:16:16.641Z,84.63
2022-09-15T21:18:44.661Z,84.15
2022-09-15T21:21:12.949Z,83.84
2022-09-15T21:23:42.740Z,82.16
2022-09-15T21:26:24.143Z,82.09
2022-09-15T21:28:51.570Z,79.69
2022-09-15T21:31:24.160Z,80.38
2022-09-15T21:33:52.143Z,81.39
2022-09-15T21:36:23.973Z,80.55
2022-09-15T21:38:54.324Z,82.00
2022-09-15T21:41:23.062Z,81.97
2022-09-15T21:43:52.292Z,81.04
2022-09-15T21:46:20.645Z,80.88
2022-09-15T21:48:48.179Z,81.13
2022-09-15T21:51:18.776Z,81.09
2022-09-15T21:53:53.483Z,81.98
2022-09-15T21:56:20.511Z,82.06
2022-09-15T21:58:47.171Z,82.34
2022-09-15T22:01:15.145Z,82.12
2022-09-15T22:03:42.939Z,83.13
2022-09-15T22:06:10.859Z,84.12
2022-09-15T22:08:38.938Z,84.01
2022-09-15T22:11:06.916Z,84.52
2022-09-15T22:13:40.030Z,85.96
2022-09-15T22:16:11.020Z,87.48
2022-09-15T22:18:39.303Z,90.46
2022-09-15T22:21:12.441Z,92.20
2022-09-15T22:23:39.479Z,90.81
2022-09-15T22:26:08.940Z,93.09
2022-09-15T22:28:35.545Z,96.16
2022-09-15T22:31:04.756Z,96.71
2022-09-15T22:33:31.313Z,97.29
2022-09-15T22:35:58.588Z,96.08
2022-09-15T22:38:28.158Z,95.43
2022-09-15T22:40:55.364Z,95.67
2022-09-15T22:43:23.129Z,93.14
2022-09-15T22:45:49.647Z,92.32
2022-09-15T22:48:16.685Z,90.29
2022-09-15T22:50:45.895Z,89.40
2022-09-15T22:53:12.505Z,88.87
2022-09-15T22:55:39.648Z,87.49
2022-09-15T22:58:06.987Z,86.66
2022-09-15T23:00:33.707Z,86.50
2022-09-15T23:03:00.360Z,84.72
2022-09-15T23:05:26.911Z,84.96
2022-09-15T23:07:53.468Z,84.76
2022-09-15T23:10:19.938Z,85.34
2022-09-15T23:12:46.543Z,85.63
2022-09-15T23:15:13.005Z,85.81
2022-09-15T23:17:39.498Z,86.01
2022-09-15T23:20:06.363Z,85.56
2022-09-15T23:22:32.839Z,84.48
2022-09-15T23:24:59.397Z,83.66
2022-09-15T23:27:25.961Z,83.72
2022-09-15T23:29:52.490Z,83.76
2022-09-15T23:32:19.065Z,83.77
2022-09-15T23:34:45.643Z,83.51
2022-09-15T23:37:12.279Z,83.02
2022-09-15T23:39:38.764Z,80.83
2022-09-15T23:42:05.289Z,80.78
2022-09-15T23:44:31.895Z,82.49
2022-09-15T23:46:58.400Z,84.70
2022-09-15T23:49:24.935Z,84.08
2022-09-15T23:51:51.489Z,84.17
2022-09-15T23:54:18.078Z,83.58
2022-09-15T23:56:44.614Z,83.60
2022-09-15T23:59:11.084Z,83.14
